createdAt,value
2023-04-21T00:00:55.932Z,99978.78
2023-04-21T00:03:24.425Z,99980.81
2023-04-21T00:05:52.077Z,99976.19
2023-04-21T00:08:19.677Z,99981.84
2023-04-21T00:10:47.236Z,99979.00
2023-04-21T00:13:14.580Z,99976.19
2023-04-21T00:15:41.923Z,99970.63
2023-04-21T00:18:09.998Z,99976.56
2023-04-21T00:20:37.343Z,99978.94
2023-04-21T00:23:04.407Z,99971.34
2023-04-21T00:25:31.347Z,99974.09
2023-04-21T00:27:58.207Z,99978.47
2023-04-21T00:30:25.922Z,99976.47
2023-04-21T00:32:52.873Z,99969.81
2023-04-21T00:35:19.790Z,99972.00
2023-04-21T00:37:46.978Z,99970.78
2023-04-21T00:40:14.046Z,99971.19
2023-04-21T00:42:42.831Z,99974.75
2023-04-21T00:45:10.092Z,99972.53
2023-04-21T00:47:37.147Z,99972.69
2023-04-21T00:50:08.013Z,99977.47
2023-04-21T00:52:42.367Z,99979.88
2023-04-21T00:55:09.829Z,99973.84
2023-04-21T00:57:40.250Z,99980.69
2023-04-21T01:00:08.997Z,99973.88
2023-04-21T01:02:39.958Z,99979.13
2023-04-21T01:05:09.074Z,99970.13
2023-04-21T01:07:38.573Z,99973.94
2023-04-21T01:10:06.458Z,99973.31
2023-04-21T01:12:33.606Z,99975.53
2023-04-21T01:15:01.251Z,99980.13
2023-04-21T01:17:29.374Z,99969.72
2023-04-21T01:19:58.156Z,99965.53
2023-04-21T01:22:26.839Z,99965.53
2023-04-21T01:24:53.840Z,99962.78
2023-04-21T01:27:21.656Z,99962.78
2023-04-21T01:29:51.764Z,99957.41
2023-04-21T01:32:22.462Z,99960.41
2023-04-21T01:34:50.209Z,99956.84
2023-04-21T01:37:22.418Z,99962.25
2023-04-21T01:39:54.641Z,99971.63
2023-04-21T01:42:27.268Z,99962.25
2023-04-21T01:44:54.597Z,99968.06
2023-04-21T01:47:22.981Z,99969.66
2023-04-21T01:49:50.343Z,99963.44
2023-04-21T01:52:17.439Z,99968.84
2023-04-21T01:54:46.197Z,99970.47
2023-04-21T01:57:17.565Z,99970.25
2023-04-21T01:59:45.910Z,99970.25
2023-04-21T02:02:13.017Z,99964.03
2023-04-21T02:04:40.225Z,99961.22
2023-04-21T02:07:07.462Z,99965.81
2023-04-21T02:09:34.481Z,99966.63
2023-04-21T02:12:02.581Z,99970.00
2023-04-21T02:14:30.175Z,99960.78
2023-04-21T02:16:57.518Z,99970.00
2023-04-21T02:19:25.356Z,99960.00
2023-04-21T02:21:54.960Z,99959.00
2023-04-21T02:24:22.385Z,99960.63
2023-04-21T02:26:49.276Z,99967.78
2023-04-21T02:29:16.813Z,99969.16
2023-04-21T02:31:58.886Z,99961.53
2023-04-21T02:34:27.926Z,99966.28
2023-04-21T02:36:54.722Z,99972.09
2023-04-21T02:39:21.882Z,99966.09
2023-04-21T02:41:49.183Z,99966.88
2023-04-21T02:44:17.142Z,99959.06
2023-04-21T02:46:45.205Z,99968.47
2023-04-21T02:49:12.144Z,99962.28
2023-04-21T02:51:40.253Z,99961.47
2023-04-21T02:54:08.752Z,99969.06
2023-04-21T02:56:42.087Z,99962.28
2023-04-21T02:59:11.582Z,99965.28
2023-04-21T03:01:39.949Z,99970.06
2023-04-21T03:04:08.582Z,99959.88
2023-04-21T03:06:38.861Z,99960.88
2023-04-21T03:09:06.020Z,99960.09
2023-04-21T03:11:34.612Z,99963.13
2023-04-21T03:14:01.548Z,99959.13
2023-04-21T03:16:28.441Z,99963.97
2023-04-21T03:18:55.368Z,99966.97
2023-04-21T03:21:22.214Z,99969.56
2023-04-21T03:23:49.047Z,99961.97
2023-04-21T03:26:16.748Z,99964.38
2023-04-21T03:28:43.595Z,99962.38
2023-04-21T03:31:10.556Z,99967.13
2023-04-21T03:33:37.412Z,99968.72
2023-04-21T03:36:04.648Z,99967.53
2023-04-21T03:38:31.691Z,99966.75
2023-04-21T03:40:58.520Z,99966.28
2023-04-21T03:43:25.532Z,99965.50
2023-04-21T03:45:55.314Z,99969.94
2023-04-21T03:48:22.177Z,99970.28
2023-04-21T03:50:49.111Z,99972.75
2023-04-21T03:53:15.910Z,99970.94
2023-04-21T03:55:42.758Z,99974.13
2023-04-21T03:58:09.607Z,99976.97
2023-04-21T04:00:36.476Z,99986.19
2023-04-21T04:03:03.354Z,99989.00
2023-04-21T04:05:30.414Z,99987.59
2023-04-21T04:07:57.359Z,99979.66
2023-04-21T04:10:24.170Z,99988.88
2023-04-21T04:12:52.253Z,99983.50
2023-04-21T04:15:19.150Z,99983.34
2023-04-21T04:17:45.971Z,99991.13
2023-04-21T04:20:12.933Z,99988.13
2023-04-21T04:22:39.882Z,99996.56
2023-04-21T04:25:07.236Z,100003.78
2023-04-21T04:27:39.380Z,100002.78
2023-04-21T04:30:07.175Z,100007.38
2023-04-21T04:32:35.110Z,100011.78
2023-04-21T04:35:02.600Z,100009.56
2023-04-21T04:37:31.858Z,100018.19
2023-04-21T04:40:00.197Z,100018.97
2023-04-21T04:42:27.191Z,100016.56
2023-04-21T04:44:54.757Z,100012.97
2023-04-21T04:47:21.912Z,100016.78
2023-04-21T04:49:49.537Z,100012.16
2023-04-21T04:52:16.538Z,100017.72
2023-04-21T04:54:43.358Z,100020.91
2023-04-21T04:57:10.534Z,100019.47
2023-04-21T04:59:37.489Z,100026.47
2023-04-21T05:02:04.394Z,100032.03
2023-04-21T05:04:34.264Z,100030.03
2023-04-21T05:07:01.364Z,100033.63
2023-04-21T05:09:28.616Z,100037.81
2023-04-21T05:11:55.598Z,100037.00
2023-04-21T05:14:22.480Z,100039.53
2023-04-21T05:16:49.880Z,100039.13
2023-04-21T05:19:18.690Z,100043.06
2023-04-21T05:21:46.031Z,100044.03
2023-04-21T05:24:13.507Z,100037.81
2023-04-21T05:26:40.549Z,100042.94
2023-04-21T05:29:07.448Z,100042.53
2023-04-21T05:31:34.977Z,100046.31
2023-04-21T05:34:02.523Z,100048.00
2023-04-21T05:36:30.550Z,100050.03
2023-04-21T05:38:57.630Z,100042.00
2023-04-21T05:41:24.803Z,100046.59
2023-04-21T05:43:51.711Z,100052.13
2023-04-21T05:46:18.762Z,100047.06
2023-04-21T05:48:45.762Z,100046.81
2023-04-21T05:51:15.464Z,100047.56
2023-04-21T05:53:43.854Z,100058.88
2023-04-21T05:56:11.265Z,100050.91
2023-04-21T05:58:38.213Z,100046.22
2023-04-21T06:01:06.292Z,100046.19
2023-04-21T06:03:33.823Z,100054.22
2023-04-21T06:06:02.292Z,100055.88
2023-04-21T06:08:29.431Z,100054.28
2023-04-21T06:10:56.325Z,100046.59
2023-04-21T06:13:23.147Z,100051.41
2023-04-21T06:15:49.988Z,100048.28
2023-04-21T06:18:17.155Z,100053.88
2023-04-21T06:20:49.735Z,100041.78
2023-04-21T06:23:21.405Z,100054.31
2023-04-21T06:25:59.340Z,100054.00
2023-04-21T06:28:26.367Z,100056.34
2023-04-21T06:30:53.316Z,100057.72
2023-04-21T06:33:20.392Z,100061.66
2023-04-21T06:35:47.308Z,100058.56
2023-04-21T06:38:15.579Z,100060.00
2023-04-21T06:40:43.533Z,100055.50
2023-04-21T06:43:10.330Z,100052.97
2023-04-21T06:45:37.252Z,100053.34
2023-04-21T06:48:04.183Z,100064.63
2023-04-21T06:50:31.241Z,100059.75
2023-04-21T06:52:59.498Z,100063.38
2023-04-21T06:55:26.454Z,100066.22
2023-04-21T06:57:53.415Z,100056.22
2023-04-21T07:00:20.270Z,100058.22
2023-04-21T07:02:47.296Z,100059.91
2023-04-21T07:05:14.311Z,100065.72
2023-04-21T07:07:41.482Z,100065.50
2023-04-21T07:10:09.915Z,100069.78
2023-04-21T07:12:36.704Z,100064.53
2023-04-21T07:15:03.968Z,100070.28
2023-04-21T07:17:32.447Z,100070.31
2023-04-21T07:19:59.404Z,100071.00
2023-04-21T07:22:26.307Z,100068.31
2023-04-21T07:24:53.249Z,100068.69
2023-04-21T07:27:20.311Z,100074.38
2023-04-21T07:29:47.139Z,100076.56
2023-04-21T07:32:13.984Z,100075.75
2023-04-21T07:34:40.853Z,100071.91
2023-04-21T07:37:07.819Z,100080.16
2023-04-21T07:39:34.725Z,100076.72
2023-04-21T07:42:01.617Z,100070.31
2023-04-21T07:44:29.517Z,100072.09
2023-04-21T07:46:56.550Z,100086.28
2023-04-21T07:49:23.759Z,100074.22
2023-04-21T07:51:50.901Z,100087.88
2023-04-21T07:54:18.030Z,100076.84
2023-04-21T07:56:44.959Z,100080.50
2023-04-21T07:59:11.916Z,100086.50
2023-04-21T08:01:38.963Z,100077.84
2023-04-21T08:04:06.818Z,100081.47
2023-04-21T08:06:33.887Z,100081.44
2023-04-21T08:09:00.816Z,100080.50
2023-04-21T08:11:28.698Z,100081.06
2023-04-21T08:13:57.727Z,100082.31
2023-04-21T08:16:24.733Z,100077.84
2023-04-21T08:18:51.670Z,100081.72
2023-04-21T08:21:18.532Z,100086.72
2023-04-21T08:23:45.485Z,100078.56
2023-04-21T08:26:13.215Z,100080.09
2023-04-21T08:28:40.821Z,100078.00
2023-04-21T08:31:07.975Z,100068.97
2023-04-21T08:33:36.358Z,100074.56
2023-04-21T08:36:12.288Z,100076.09
2023-04-21T08:38:46.411Z,100069.03
2023-04-21T08:41:16.684Z,100064.84
2023-04-21T08:43:43.541Z,100073.88
2023-04-21T08:46:10.896Z,100073.97
2023-04-21T08:48:39.176Z,100066.09
2023-04-21T08:51:10.148Z,100064.25
2023-04-21T08:53:38.300Z,100059.25
2023-04-21T08:58:35.908Z,100062.91
2023-04-21T09:01:02.948Z,100060.22
2023-04-21T09:03:31.588Z,100046.53
2023-04-21T09:06:00.043Z,100050.50
2023-04-21T09:08:29.871Z,100050.78
2023-04-21T09:10:58.440Z,100051.34
2023-04-21T09:13:33.722Z,100039.22
2023-04-21T09:16:01.805Z,100040.19
2023-04-21T09:18:36.460Z,100036.50
2023-04-21T09:21:13.825Z,100038.19
2023-04-21T09:23:43.942Z,100040.06
2023-04-21T09:26:11.986Z,100034.78
2023-04-21T09:28:43.256Z,100044.50
2023-04-21T09:31:28.803Z,100040.28
2023-04-21T09:34:00.421Z,100041.91
2023-04-21T09:36:32.411Z,100040.03
2023-04-21T09:41:32.881Z,100028.97
2023-04-21T09:44:04.881Z,100033.47
2023-04-21T09:46:37.060Z,100038.69
2023-04-21T09:49:05.847Z,100021.31
2023-04-21T09:51:56.318Z,100025.50
2023-04-21T09:54:29.722Z,100025.78
2023-04-21T09:57:06.504Z,100031.28
2023-04-21T09:59:38.360Z,100023.34
2023-04-21T10:02:09.884Z,100019.03
2023-04-21T10:04:38.889Z,100027.34
2023-04-21T10:07:06.632Z,100019.00
2023-04-21T10:09:47.602Z,100028.88
2023-04-21T10:12:15.680Z,100022.34
2023-04-21T10:14:44.993Z,100014.09
2023-04-21T10:17:13.521Z,100017.69
2023-04-21T10:19:54.009Z,100011.34
2023-04-21T10:22:31.947Z,100010.06
2023-04-21T10:25:01.950Z,100010.06
2023-04-21T10:27:36.297Z,100014.53
2023-04-21T10:30:26.664Z,100005.44
2023-04-21T10:33:05.180Z,99998.63
2023-04-21T10:36:05.164Z,100010.63
2023-04-21T10:39:01.390Z,99996.47
2023-04-21T10:41:31.226Z,99991.94
2023-04-21T10:44:13.313Z,99989.88
2023-04-21T10:46:45.892Z,99995.63
2023-04-21T10:49:30.576Z,99991.69
2023-04-21T10:52:02.543Z,99981.38
2023-04-21T10:54:48.681Z,99977.66
2023-04-21T10:57:22.952Z,99982.22
2023-04-21T10:59:55.325Z,99969.66
2023-04-21T11:02:22.632Z,99965.97
2023-04-21T11:04:58.261Z,99974.59
2023-04-21T11:07:27.192Z,99958.63
2023-04-21T11:10:06.472Z,99961.03
2023-04-21T11:12:43.588Z,99961.03
2023-04-21T11:15:13.499Z,99957.41
2023-04-21T11:17:43.800Z,99961.09
2023-04-21T11:20:11.337Z,99971.63
2023-04-21T11:22:39.004Z,99950.09
2023-04-21T11:25:16.842Z,99960.63
2023-04-21T11:27:56.064Z,99950.66
2023-04-21T11:30:35.775Z,99954.81
2023-04-21T11:33:03.223Z,99953.75
2023-04-21T11:35:31.761Z,99950.63
2023-04-21T11:37:58.744Z,99946.88
2023-04-21T11:40:25.879Z,99943.44
2023-04-21T11:42:54.681Z,99933.97
2023-04-21T11:45:22.890Z,99941.09
2023-04-21T11:47:50.137Z,99937.44
2023-04-21T11:50:47.811Z,99932.56
2023-04-21T11:53:19.345Z,99937.66
2023-04-21T11:55:56.532Z,99931.13
2023-04-21T11:58:25.156Z,99932.16
2023-04-21T12:00:57.605Z,99922.91
2023-04-21T12:03:26.485Z,99927.13
2023-04-21T12:05:58.616Z,99923.25
2023-04-21T12:08:29.074Z,99920.09
2023-04-21T12:10:56.624Z,99921.13
2023-04-21T12:13:24.454Z,99909.22
2023-04-21T12:15:53.334Z,99897.44
2023-04-21T12:18:20.625Z,99911.34
2023-04-21T12:20:52.087Z,99916.91
2023-04-21T12:23:20.947Z,99910.59
2023-04-21T12:25:48.179Z,99900.88
2023-04-21T12:28:18.356Z,99900.63
2023-04-21T12:30:45.355Z,99909.59
2023-04-21T12:33:13.181Z,99901.19
2023-04-21T12:35:40.227Z,99900.16
2023-04-21T12:38:07.424Z,99899.91
2023-04-21T12:40:35.549Z,99902.00
2023-04-21T12:43:04.028Z,99896.50
2023-04-21T12:45:32.633Z,99901.47
2023-04-21T12:48:00.489Z,99900.69
2023-04-21T12:50:27.468Z,99894.41
2023-04-21T12:52:55.386Z,99889.91
2023-04-21T12:55:23.329Z,99895.94
2023-04-21T12:58:02.011Z,99894.63
2023-04-21T13:00:33.451Z,99889.13
2023-04-21T13:03:09.335Z,99884.59
2023-04-21T13:05:36.461Z,99875.41
2023-04-21T13:08:03.426Z,99881.22
2023-04-21T13:10:31.860Z,99885.44
2023-04-21T13:12:58.695Z,99876.50
2023-04-21T13:15:26.210Z,99883.84
2023-04-21T13:17:56.280Z,99877.00
2023-04-21T13:20:25.639Z,99870.66
2023-04-21T13:22:52.809Z,99865.41
2023-04-21T13:25:19.818Z,99872.69
2023-04-21T13:27:47.784Z,99863.72
2023-04-21T13:30:16.405Z,99859.25
2023-04-21T13:32:45.171Z,99868.41
2023-04-21T13:35:12.291Z,99858.44
2023-04-21T13:37:39.925Z,99853.97
2023-04-21T13:40:09.400Z,99849.50
2023-04-21T13:42:40.147Z,99842.44
2023-04-21T13:45:07.866Z,99837.75
2023-04-21T13:47:34.908Z,99836.72
2023-04-21T13:50:03.086Z,99837.56
2023-04-21T13:52:32.307Z,99831.72
2023-04-21T13:54:59.320Z,99824.91
2023-04-21T13:57:26.287Z,99824.91
2023-04-21T13:59:54.293Z,99820.72
2023-04-21T14:02:25.872Z,99813.38
2023-04-21T14:04:54.404Z,99821.25
2023-04-21T14:07:23.107Z,99823.88
2023-04-21T14:09:51.868Z,99813.84
2023-04-21T14:12:20.551Z,99814.41
2023-04-21T14:14:47.561Z,99807.06
2023-04-21T14:17:16.771Z,99813.84
2023-04-21T14:19:43.980Z,99813.34
2023-04-21T14:22:11.248Z,99804.41
2023-04-21T14:24:39.410Z,99806.00
2023-04-21T14:27:06.716Z,99805.19
2023-04-21T14:29:33.790Z,99799.41
2023-04-21T14:32:01.161Z,99804.41
2023-04-21T14:34:28.124Z,99804.41
2023-04-21T14:36:55.219Z,99797.56
2023-04-21T14:39:22.346Z,99802.84
2023-04-21T14:41:49.709Z,99801.25
2023-04-21T14:44:19.019Z,99792.28
2023-04-21T14:46:53.727Z,99793.34
2023-04-21T14:49:28.638Z,99794.94
2023-04-21T14:51:55.719Z,99782.06
2023-04-21T14:54:27.000Z,99786.25
2023-04-21T14:57:06.738Z,99776.81
2023-04-21T14:59:43.907Z,99780.19
2023-04-21T15:02:13.173Z,99777.59
2023-04-21T15:04:40.414Z,99770.75
2023-04-21T15:07:07.484Z,99769.44
2023-04-21T15:09:39.140Z,99779.97
2023-04-21T15:12:06.494Z,99775.50
2023-04-21T15:14:33.548Z,99775.72
2023-04-21T15:17:00.890Z,99767.06
2023-04-21T15:19:27.824Z,99777.56
2023-04-21T15:21:57.427Z,99774.44
2023-04-21T15:24:27.682Z,99769.97
2023-04-21T15:26:55.622Z,99774.13
2023-04-21T15:29:26.135Z,99764.69
2023-04-21T15:31:54.337Z,99772.56
2023-04-21T15:34:23.554Z,99770.22
2023-04-21T15:36:51.084Z,99772.34
2023-04-21T15:39:17.988Z,99761.53
2023-04-21T15:41:45.008Z,99759.97
2023-04-21T15:44:14.937Z,99764.97
2023-04-21T15:46:42.054Z,99774.94
2023-04-21T15:49:09.131Z,99762.84
2023-04-21T15:51:37.154Z,99760.22
2023-04-21T15:54:05.105Z,99755.22
2023-04-21T15:56:32.143Z,99762.03
2023-04-21T15:58:59.205Z,99751.25
2023-04-21T16:01:26.116Z,99759.69
2023-04-21T16:03:53.481Z,99761.50
2023-04-21T16:06:21.611Z,99746.22
2023-04-21T16:08:48.726Z,99753.84
2023-04-21T16:11:17.665Z,99750.72
2023-04-21T16:13:44.683Z,99753.84
2023-04-21T16:16:12.712Z,99743.09
2023-04-21T16:18:39.612Z,99750.19
2023-04-21T16:21:07.001Z,99746.50
2023-04-21T16:23:37.591Z,99741.75
2023-04-21T16:26:06.152Z,99741.47
2023-04-21T16:28:34.340Z,99749.09
2023-04-21T16:31:01.250Z,99750.16
2023-04-21T16:33:28.324Z,99743.34
2023-04-21T16:35:57.425Z,99743.00
2023-04-21T16:38:25.113Z,99751.69
2023-04-21T16:40:52.239Z,99738.03
2023-04-21T16:43:19.570Z,99738.25
2023-04-21T16:45:46.462Z,99740.63
2023-04-21T16:48:17.315Z,99741.16
2023-04-21T16:50:45.677Z,99735.59
2023-04-21T16:53:12.740Z,99742.97
2023-04-21T16:55:40.963Z,99735.88
2023-04-21T16:58:08.957Z,99734.25
2023-04-21T17:00:37.072Z,99740.03
2023-04-21T17:03:05.527Z,99736.81
2023-04-21T17:05:32.546Z,99735.75
2023-04-21T17:07:59.464Z,99736.78
2023-04-21T17:10:27.230Z,99732.03
2023-04-21T17:12:56.878Z,99734.66
2023-04-21T17:15:23.724Z,99738.28
2023-04-21T17:17:51.462Z,99736.16
2023-04-21T17:20:18.348Z,99749.25
2023-04-21T17:22:45.157Z,99741.09
2023-04-21T17:25:12.352Z,99741.84
2023-04-21T17:27:41.514Z,99744.44
2023-04-21T17:30:09.572Z,99742.00
2023-04-21T17:32:37.490Z,99736.50
2023-04-21T17:35:05.825Z,99736.47
2023-04-21T17:37:33.680Z,99736.94
2023-04-21T17:40:02.962Z,99735.28
2023-04-21T17:42:34.013Z,99739.41
2023-04-21T17:45:10.254Z,99739.63
2023-04-21T17:47:37.451Z,99739.84
2023-04-21T17:50:04.765Z,99740.28
2023-04-21T17:52:33.076Z,99737.06
2023-04-21T17:55:01.680Z,99745.91
2023-04-21T17:57:32.246Z,99743.19
2023-04-21T18:00:02.014Z,99736.31
2023-04-21T18:02:32.890Z,99742.53
2023-04-21T18:05:00.301Z,99741.44
2023-04-21T18:07:27.133Z,99743.22
2023-04-21T18:09:55.078Z,99743.38
2023-04-21T18:12:22.007Z,99754.06
2023-04-21T18:14:48.973Z,99753.44
2023-04-21T18:17:17.553Z,99747.91
2023-04-21T18:19:46.551Z,99749.13
2023-04-21T18:22:13.597Z,99750.28
2023-04-21T18:24:40.864Z,99752.63
2023-04-21T18:27:10.825Z,99751.78
2023-04-21T18:29:38.053Z,99755.09
2023-04-21T18:32:05.038Z,99757.88
2023-04-21T18:34:32.929Z,99751.78
2023-04-21T18:36:59.834Z,99758.53
2023-04-21T18:39:27.790Z,99763.69
2023-04-21T18:41:57.655Z,99761.22
2023-04-21T18:44:24.613Z,99767.97
2023-04-21T18:46:51.752Z,99757.44
2023-04-21T18:49:18.851Z,99767.81
2023-04-21T18:51:46.233Z,99753.28
2023-04-21T18:54:14.058Z,99763.22
2023-04-21T18:56:41.658Z,99763.38
2023-04-21T18:59:10.208Z,99762.72
2023-04-21T19:01:40.538Z,99760.00
2023-04-21T19:04:11.895Z,99771.41
2023-04-21T19:06:38.999Z,99767.09
2023-04-21T19:09:06.973Z,99766.00
2023-04-21T19:11:34.528Z,99769.31
2023-04-21T19:14:04.351Z,99775.78
2023-04-21T19:16:32.336Z,99773.09
2023-04-21T19:18:59.310Z,99771.94
2023-04-21T19:21:26.236Z,99771.66
2023-04-21T19:23:57.386Z,99767.13
2023-04-21T19:26:26.466Z,99766.69
2023-04-21T19:28:54.398Z,99767.59
2023-04-21T19:31:24.595Z,99767.28
2023-04-21T19:33:57.199Z,99768.19
2023-04-21T19:36:24.041Z,99765.50
2023-04-21T19:38:51.055Z,99768.00
2023-04-21T19:41:20.379Z,99769.47
2023-04-21T19:43:52.564Z,99767.56
2023-04-21T19:46:19.630Z,99767.75
2023-04-21T19:48:49.371Z,99766.66
2023-04-21T19:51:19.120Z,99758.72
2023-04-21T19:54:03.153Z,99754.41
2023-04-21T19:56:36.940Z,99765.53
2023-04-21T19:59:07.755Z,99773.78
2023-04-21T20:01:42.858Z,99765.31
2023-04-21T20:04:12.110Z,99768.34
2023-04-21T20:06:42.841Z,99763.84
2023-04-21T20:09:11.917Z,99765.75
2023-04-21T20:11:38.950Z,99765.66
2023-04-21T20:14:07.493Z,99765.06
2023-04-21T20:16:37.953Z,99757.91
2023-04-21T20:19:05.353Z,99767.22
2023-04-21T20:21:33.372Z,99768.44
2023-04-21T20:24:01.305Z,99768.13
2023-04-21T20:26:38.188Z,99774.56
2023-04-21T20:29:39.797Z,99769.91
2023-04-21T20:32:22.360Z,99773.75
2023-04-21T20:35:26.080Z,99777.22
2023-04-21T20:38:06.213Z,99769.31
2023-04-21T20:40:43.014Z,99777.34
2023-04-21T20:44:02.688Z,99775.84
2023-04-21T20:47:20.090Z,99773.56
2023-04-21T20:50:24.094Z,99781.41
2023-04-21T20:53:29.655Z,99779.66
2023-04-21T20:56:02.868Z,99781.88
2023-04-21T20:58:31.413Z,99781.88
2023-04-21T21:01:06.172Z,99783.13
2023-04-21T21:03:46.500Z,99778.34
2023-04-21T21:06:18.548Z,99779.81
2023-04-21T21:08:48.897Z,99779.00
2023-04-21T21:11:18.366Z,99784.91
2023-04-21T21:13:46.360Z,99782.72
2023-04-21T21:16:19.402Z,99780.53
2023-04-21T21:18:53.750Z,99783.25
2023-04-21T21:21:22.642Z,99779.25
2023-04-21T21:23:53.947Z,99777.66
2023-04-21T21:26:23.677Z,99782.06
2023-04-21T21:28:50.847Z,99781.25
2023-04-21T21:31:17.666Z,99777.31
2023-04-21T21:33:44.679Z,99782.16
2023-04-21T21:36:12.313Z,99777.38
2023-04-21T21:38:41.151Z,99782.22
2023-04-21T21:41:10.376Z,99781.41
2023-04-21T21:43:37.356Z,99784.47
2023-04-21T21:46:06.304Z,99783.88
2023-04-21T21:48:33.159Z,99787.94
2023-04-21T21:51:00.171Z,99779.53
2023-04-21T21:53:27.247Z,99784.41
2023-04-21T21:55:54.167Z,99795.44
2023-04-21T21:58:21.735Z,99789.66
2023-04-21T22:00:51.939Z,99790.88
2023-04-21T22:03:20.070Z,99790.53
2023-04-21T22:05:50.233Z,99788.34
2023-04-21T22:08:17.821Z,99789.59
2023-04-21T22:10:45.480Z,99794.38
2023-04-21T22:13:12.543Z,99788.59
2023-04-21T22:15:39.638Z,99787.81
2023-04-21T22:18:08.072Z,99785.88
2023-04-21T22:20:35.737Z,99788.31
2023-04-21T22:23:03.601Z,99786.13
2023-04-21T22:25:30.730Z,99783.97
2023-04-21T22:27:58.067Z,99774.19
2023-04-21T22:30:26.013Z,99776.00
2023-04-21T22:32:53.644Z,99778.03
2023-04-21T22:35:21.031Z,99779.25
2023-04-21T22:37:48.077Z,99782.47
2023-04-21T22:40:17.406Z,99779.72
2023-04-21T22:42:44.340Z,99782.97
2023-04-21T22:45:12.358Z,99778.97
2023-04-21T22:47:39.251Z,99774.19
2023-04-21T22:50:07.349Z,99777.00
2023-04-21T22:52:34.405Z,99778.25
2023-04-21T22:55:03.958Z,99778.41
2023-04-21T22:57:32.688Z,99774.22
2023-04-21T22:59:59.749Z,99778.63
2023-04-21T23:02:27.006Z,99780.63
2023-04-21T23:04:55.158Z,99788.69
2023-04-21T23:07:22.064Z,99788.28
2023-04-21T23:09:49.164Z,99789.50
2023-04-21T23:12:16.232Z,99788.72
2023-04-21T23:14:43.732Z,99789.13
2023-04-21T23:17:10.601Z,99787.53
2023-04-21T23:19:37.603Z,99790.34
2023-04-21T23:22:05.217Z,99793.16
2023-04-21T23:24:32.159Z,99793.56
2023-04-21T23:26:59.136Z,99790.34
2023-04-21T23:29:27.352Z,99796.34
2023-04-21T23:31:55.043Z,99793.41
2023-04-21T23:34:22.182Z,99794.41
2023-04-21T23:36:49.015Z,99791.81
2023-04-21T23:39:18.153Z,99789.63
2023-04-21T23:41:45.194Z,99782.25
2023-04-21T23:44:15.039Z,99780.06
2023-04-21T23:46:42.189Z,99784.44
2023-04-21T23:49:09.076Z,99781.66
2023-04-21T23:51:38.562Z,99780.28
2023-04-21T23:54:05.539Z,99779.94
2023-04-21T23:56:32.503Z,99781.31
2023-04-21T23:58:59.975Z,99787.75
